sensor_id;sensor_type;location;lat;lon;timestamp;pressure;altitude;pressure_sealevel;temperature;humidity
62942;BME280;49042;47.318;19.874;2024-02-26T00:01:38;99772.16;;;11.01;100.00
62942;BME280;49042;47.318;19.874;2024-02-26T00:04:40;99773.53;;;11.30;100.00
62942;BME280;49042;47.318;19.874;2024-02-26T00:07:42;99770.44;;;11.02;100.00
62942;BME280;49042;47.318;19.874;2024-02-26T00:10:44;99769.97;;;10.77;100.00
62942;BME280;49042;47.318;19.874;2024-02-26T00:13:46;99762.63;;;11.03;100.00
62942;BME280;49042;47.318;19.874;2024-02-26T00:16:47;99760.47;;;10.80;100.00
62942;BME280;49042;47.318;19.874;2024-02-26T00:19:49;99760.59;;;10.88;100.00
62942;BME280;49042;47.318;19.874;2024-02-26T00:22:51;99757.22;;;10.92;100.00
62942;BME280;49042;47.318;19.874;2024-02-26T00:25:53;99755.28;;;10.82;100.00
62942;BME280;49042;47.318;19.874;2024-02-26T00:28:55;99744.00;;;10.83;100.00
62942;BME280;49042;47.318;19.874;2024-02-26T00:31:57;99739.63;;;10.82;100.00
62942;BME280;49042;47.318;19.874;2024-02-26T00:34:58;99743.16;;;10.86;100.00
62942;BME280;49042;47.318;19.874;2024-02-26T00:38:00;99748.22;;;10.76;100.00
62942;BME280;49042;47.318;19.874;2024-02-26T00:41:03;99736.69;;;10.65;100.00
62942;BME280;49042;47.318;19.874;2024-02-26T00:44:05;99741.22;;;10.74;100.00
62942;BME280;49042;47.318;19.874;2024-02-26T00:47:06;99734.81;;;10.56;100.00
62942;BME280;49042;47.318;19.874;2024-02-26T00:50:09;99737.47;;;10.59;100.00
62942;BME280;49042;47.318;19.874;2024-02-26T00:53:11;99731.19;;;10.50;100.00
62942;BME280;49042;47.318;19.874;2024-02-26T00:56:13;99733.56;;;10.39;100.00
62942;BME280;49042;47.318;19.874;2024-02-26T00:59:14;99737.88;;;10.37;100.00
62942;BME280;49042;47.318;19.874;2024-02-26T01:02:16;99730.59;;;10.21;100.00
62942;BME280;49042;47.318;19.874;2024-02-26T01:05:18;99730.84;;;10.33;100.00
62942;BME280;49042;47.318;19.874;2024-02-26T01:08:20;99732.28;;;10.18;100.00
62942;BME280;49042;47.318;19.874;2024-02-26T01:11:22;99719.25;;;10.17;100.00
62942;BME280;49042;47.318;19.874;2024-02-26T01:14:24;99721.19;;;10.27;100.00
62942;BME280;49042;47.318;19.874;2024-02-26T01:17:25;99727.00;;;10.14;100.00
62942;BME280;49042;47.318;19.874;2024-02-26T01:20:27;99711.91;;;9.99;100.00
62942;BME280;49042;47.318;19.874;2024-02-26T01:23:29;99698.50;;;9.81;100.00
62942;BME280;49042;47.318;19.874;2024-02-26T01:26:31;99695.28;;;9.93;100.00
62942;BME280;49042;47.318;19.874;2024-02-26T01:29:32;99692.66;;;9.92;100.00
62942;BME280;49042;47.318;19.874;2024-02-26T01:32:34;99700.53;;;9.96;100.00
62942;BME280;49042;47.318;19.874;2024-02-26T01:35:37;99704.09;;;9.99;100.00
62942;BME280;49042;47.318;19.874;2024-02-26T01:38:39;99687.69;;;10.04;100.00
62942;BME280;49042;47.318;19.874;2024-02-26T01:41:41;99687.47;;;9.93;100.00
62942;BME280;49042;47.318;19.874;2024-02-26T01:44:43;99684.34;;;10.10;100.00
62942;BME280;49042;47.318;19.874;2024-02-26T01:47:45;99690.41;;;10.09;100.00
62942;BME280;49042;47.318;19.874;2024-02-26T01:50:48;99691.28;;;10.10;100.00
62942;BME280;49042;47.318;19.874;2024-02-26T01:53:49;99685.97;;;10.05;100.00
62942;BME280;49042;47.318;19.874;2024-02-26T01:56:52;99690.69;;;10.25;100.00
62942;BME280;49042;47.318;19.874;2024-02-26T01:59:54;99692.66;;;10.35;100.00
62942;BME280;49042;47.318;19.874;2024-02-26T02:02:57;99689.53;;;10.09;100.00
62942;BME280;49042;47.318;19.874;2024-02-26T02:05:58;99689.75;;;10.20;100.00
62942;BME280;49042;47.318;19.874;2024-02-26T02:09:01;99688.25;;;10.31;100.00
62942;BME280;49042;47.318;19.874;2024-02-26T02:12:08;99679.28;;;10.18;100.00
62942;BME280;49042;47.318;19.874;2024-02-26T02:15:10;99672.94;;;10.05;100.00
62942;BME280;49042;47.318;19.874;2024-02-26T02:18:12;99671.03;;;9.96;100.00
62942;BME280;49042;47.318;19.874;2024-02-26T02:21:13;99663.47;;;10.09;100.00
62942;BME280;49042;47.318;19.874;2024-02-26T02:24:15;99665.78;;;9.94;100.00
62942;BME280;49042;47.318;19.874;2024-02-26T02:27:17;99656.84;;;9.81;100.00
62942;BME280;49042;47.318;19.874;2024-02-26T02:30:23;99661.28;;;9.85;100.00
62942;BME280;49042;47.318;19.874;2024-02-26T02:33:26;99667.50;;;9.94;100.00
62942;BME280;49042;47.318;19.874;2024-02-26T02:36:28;99666.59;;;9.92;100.00
62942;BME280;49042;47.318;19.874;2024-02-26T02:39:30;99668.22;;;9.87;100.00
62942;BME280;49042;47.318;19.874;2024-02-26T02:42:32;99672.78;;;9.97;100.00
62942;BME280;49042;47.318;19.874;2024-02-26T02:45:33;99671.00;;;9.94;100.00
62942;BME280;49042;47.318;19.874;2024-02-26T02:48:35;99674.00;;;9.73;100.00
62942;BME280;49042;47.318;19.874;2024-02-26T02:51:37;99673.53;;;9.91;100.00
62942;BME280;49042;47.318;19.874;2024-02-26T02:54:39;99676.38;;;10.02;100.00
62942;BME280;49042;47.318;19.874;2024-02-26T02:57:43;99674.47;;;9.95;100.00
62942;BME280;49042;47.318;19.874;2024-02-26T03:00:46;99682.41;;;10.01;100.00
62942;BME280;49042;47.318;19.874;2024-02-26T03:03:48;99664.38;;;9.69;100.00
62942;BME280;49042;47.318;19.874;2024-02-26T03:06:49;99663.28;;;9.57;100.00
62942;BME280;49042;47.318;19.874;2024-02-26T03:09:51;99672.87;;;9.60;100.00
62942;BME280;49042;47.318;19.874;2024-02-26T03:12:53;99664.34;;;9.67;100.00
62942;BME280;49042;47.318;19.874;2024-02-26T03:15:55;99665.19;;;9.66;100.00
62942;BME280;49042;47.318;19.874;2024-02-26T03:18:57;99665.13;;;9.63;100.00
62942;BME280;49042;47.318;19.874;2024-02-26T03:21:59;99678.78;;;9.54;100.00
62942;BME280;49042;47.318;19.874;2024-02-26T03:25:01;99672.97;;;9.64;100.00
62942;BME280;49042;47.318;19.874;2024-02-26T03:28:03;99671.78;;;9.50;100.00
62942;BME280;49042;47.318;19.874;2024-02-26T03:31:04;99669.38;;;9.59;100.00
62942;BME280;49042;47.318;19.874;2024-02-26T03:34:06;99676.16;;;9.52;100.00
62942;BME280;49042;47.318;19.874;2024-02-26T03:37:08;99671.59;;;9.42;100.00
62942;BME280;49042;47.318;19.874;2024-02-26T03:40:12;99658.72;;;9.48;100.00
62942;BME280;49042;47.318;19.874;2024-02-26T03:43:16;99669.91;;;9.44;100.00
62942;BME280;49042;47.318;19.874;2024-02-26T03:46:18;99669.12;;;9.48;100.00
62942;BME280;49042;47.318;19.874;2024-02-26T03:49:20;99672.03;;;9.61;100.00
62942;BME280;49042;47.318;19.874;2024-02-26T03:52:22;99661.03;;;9.74;100.00
62942;BME280;49042;47.318;19.874;2024-02-26T03:55:23;99652.22;;;9.68;100.00
62942;BME280;49042;47.318;19.874;2024-02-26T03:58:26;99642.63;;;9.67;100.00
62942;BME280;49042;47.318;19.874;2024-02-26T04:01:28;99642.53;;;9.62;100.00
62942;BME280;49042;47.318;19.874;2024-02-26T04:04:34;99636.31;;;9.55;100.00
62942;BME280;49042;47.318;19.874;2024-02-26T04:07:35;99635.47;;;9.58;100.00
62942;BME280;49042;47.318;19.874;2024-02-26T04:10:37;99637.44;;;9.68;100.00
62942;BME280;49042;47.318;19.874;2024-02-26T04:13:40;99636.25;;;9.52;100.00
62942;BME280;49042;47.318;19.874;2024-02-26T04:16:42;99637.50;;;9.31;100.00
62942;BME280;49042;47.318;19.874;2024-02-26T04:19:44;99637.75;;;9.42;100.00
62942;BME280;49042;47.318;19.874;2024-02-26T04:22:45;99631.50;;;9.34;100.00
62942;BME280;49042;47.318;19.874;2024-02-26T04:25:47;99631.28;;;9.24;100.00
62942;BME280;49042;47.318;19.874;2024-02-26T04:28:49;99617.22;;;9.16;100.00
62942;BME280;49042;47.318;19.874;2024-02-26T04:31:51;99624.44;;;9.28;100.00
62942;BME280;49042;47.318;19.874;2024-02-26T04:34:53;99624.69;;;9.39;100.00
62942;BME280;49042;47.318;19.874;2024-02-26T04:37:55;99617.81;;;9.04;100.00
62942;BME280;49042;47.318;19.874;2024-02-26T04:40:57;99624.00;;;9.09;100.00
62942;BME280;49042;47.318;19.874;2024-02-26T04:43:59;99625.38;;;9.31;100.00
62942;BME280;49042;47.318;19.874;2024-02-26T04:47:00;99624.25;;;9.20;100.00
62942;BME280;49042;47.318;19.874;2024-02-26T04:50:03;99626.13;;;8.88;100.00
62942;BME280;49042;47.318;19.874;2024-02-26T04:53:05;99613.31;;;8.96;100.00
62942;BME280;49042;47.318;19.874;2024-02-26T04:56:07;99622.78;;;8.94;100.00
62942;BME280;49042;47.318;19.874;2024-02-26T04:59:09;99630.78;;;9.02;100.00
62942;BME280;49042;47.318;19.874;2024-02-26T05:02:12;99626.50;;;9.04;100.00
62942;BME280;49042;47.318;19.874;2024-02-26T05:05:13;99635.91;;;8.99;100.00
62942;BME280;49042;47.318;19.874;2024-02-26T05:08:15;99638.66;;;9.05;100.00
62942;BME280;49042;47.318;19.874;2024-02-26T05:11:17;99641.25;;;9.05;100.00
62942;BME280;49042;47.318;19.874;2024-02-26T05:14:20;99637.88;;;9.08;100.00
62942;BME280;49042;47.318;19.874;2024-02-26T05:17:21;99630.00;;;9.06;100.00
62942;BME280;49042;47.318;19.874;2024-02-26T05:20:26;99625.38;;;8.94;100.00
62942;BME280;49042;47.318;19.874;2024-02-26T05:23:28;99629.72;;;8.94;100.00
62942;BME280;49042;47.318;19.874;2024-02-26T05:26:30;99631.69;;;9.04;100.00
62942;BME280;49042;47.318;19.874;2024-02-26T05:29:32;99635.25;;;9.08;100.00
62942;BME280;49042;47.318;19.874;2024-02-26T05:32:33;99633.38;;;9.02;100.00
62942;BME280;49042;47.318;19.874;2024-02-26T05:35:35;99634.38;;;9.07;100.00
62942;BME280;49042;47.318;19.874;2024-02-26T05:38:37;99635.91;;;8.99;100.00
62942;BME280;49042;47.318;19.874;2024-02-26T05:41:38;99634.06;;;8.95;100.00
62942;BME280;49042;47.318;19.874;2024-02-26T05:44:40;99630.63;;;8.96;100.00
62942;BME280;49042;47.318;19.874;2024-02-26T05:47:42;99628.50;;;8.79;100.00
62942;BME280;49042;47.318;19.874;2024-02-26T05:50:47;99621.66;;;8.83;100.00
62942;BME280;49042;47.318;19.874;2024-02-26T05:53:49;99642.63;;;8.91;100.00
62942;BME280;49042;47.318;19.874;2024-02-26T05:56:56;99641.56;;;8.82;100.00
62942;BME280;49042;47.318;19.874;2024-02-26T05:59:58;99644.03;;;8.77;100.00
62942;BME280;49042;47.318;19.874;2024-02-26T06:03:04;99646.97;;;8.90;100.00
62942;BME280;49042;47.318;19.874;2024-02-26T06:06:06;99653.19;;;8.97;100.00
62942;BME280;49042;47.318;19.874;2024-02-26T06:09:08;99654.16;;;9.01;100.00
62942;BME280;49042;47.318;19.874;2024-02-26T06:12:10;99654.19;;;9.02;100.00
62942;BME280;49042;47.318;19.874;2024-02-26T06:15:12;99662.38;;;9.18;100.00
62942;BME280;49042;47.318;19.874;2024-02-26T06:18:14;99662.41;;;9.19;100.00
62942;BME280;49042;47.318;19.874;2024-02-26T06:21:16;99667.66;;;9.23;100.00
62942;BME280;49042;47.318;19.874;2024-02-26T06:24:17;99662.84;;;9.38;100.00
62942;BME280;49042;47.318;19.874;2024-02-26T06:27:19;99671.59;;;9.42;100.00
62942;BME280;49042;47.318;19.874;2024-02-26T06:30:23;99659.38;;;9.78;100.00
62942;BME280;49042;47.318;19.874;2024-02-26T06:33:25;99669.88;;;9.81;100.00
62942;BME280;49042;47.318;19.874;2024-02-26T06:36:27;99674.78;;;10.09;100.00
62942;BME280;49042;47.318;19.874;2024-02-26T06:39:28;99679.19;;;10.13;100.00
62942;BME280;49042;47.318;19.874;2024-02-26T06:42:30;99676.47;;;10.07;100.00
62942;BME280;49042;47.318;19.874;2024-02-26T06:45:32;99669.28;;;9.96;100.00
62942;BME280;49042;47.318;19.874;2024-02-26T06:48:34;99662.03;;;10.23;100.00
62942;BME280;49042;47.318;19.874;2024-02-26T06:51:38;99666.84;;;10.48;100.00
62942;BME280;49042;47.318;19.874;2024-02-26T06:54:40;99670.66;;;10.67;100.00
62942;BME280;49042;47.318;19.874;2024-02-26T06:57:43;99675.53;;;10.95;100.00
62942;BME280;49042;47.318;19.874;2024-02-26T07:00:44;99672.00;;;11.49;100.00
62942;BME280;49042;47.318;19.874;2024-02-26T07:03:47;99665.06;;;11.51;100.00
62942;BME280;49042;47.318;19.874;2024-02-26T07:06:49;99666.84;;;11.54;100.00
62942;BME280;49042;47.318;19.874;2024-02-26T07:09:51;99668.13;;;11.84;100.00
62942;BME280;49042;47.318;19.874;2024-02-26T07:12:53;99663.13;;;12.83;100.00
62942;BME280;49042;47.318;19.874;2024-02-26T07:15:55;99655.00;;;13.64;100.00
62942;BME280;49042;47.318;19.874;2024-02-26T07:18:57;99660.38;;;13.81;100.00
62942;BME280;49042;47.318;19.874;2024-02-26T07:21:59;99666.25;;;13.51;100.00
62942;BME280;49042;47.318;19.874;2024-02-26T07:25:03;99656.19;;;14.40;100.00
62942;BME280;49042;47.318;19.874;2024-02-26T07:28:05;99660.66;;;14.82;100.00
62942;BME280;49042;47.318;19.874;2024-02-26T07:31:06;99658.00;;;14.81;100.00
62942;BME280;49042;47.318;19.874;2024-02-26T07:34:08;99667.41;;;13.95;100.00
62942;BME280;49042;47.318;19.874;2024-02-26T07:37:11;99660.38;;;13.86;100.00
62942;BME280;49042;47.318;19.874;2024-02-26T07:40:13;99670.97;;;14.15;100.00
62942;BME280;49042;47.318;19.874;2024-02-26T07:43:14;99660.56;;;14.30;100.00
62942;BME280;49042;47.318;19.874;2024-02-26T07:46:16;99661.56;;;15.06;100.00
62942;BME280;49042;47.318;19.874;2024-02-26T07:49:18;99662.31;;;14.36;100.00
62942;BME280;49042;47.318;19.874;2024-02-26T07:52:20;99653.59;;;14.43;100.00
62942;BME280;49042;47.318;19.874;2024-02-26T07:55:22;99665.81;;;14.37;100.00
62942;BME280;49042;47.318;19.874;2024-02-26T07:58:24;99667.53;;;14.27;100.00
62942;BME280;49042;47.318;19.874;2024-02-26T08:01:26;99657.75;;;13.83;100.00
62942;BME280;49042;47.318;19.874;2024-02-26T08:04:27;99664.88;;;14.22;100.00
62942;BME280;49042;47.318;19.874;2024-02-26T08:07:29;99663.19;;;14.46;100.00
62942;BME280;49042;47.318;19.874;2024-02-26T08:10:32;99672.63;;;13.87;100.00
62942;BME280;49042;47.318;19.874;2024-02-26T08:13:34;99680.47;;;13.87;100.00
62942;BME280;49042;47.318;19.874;2024-02-26T08:16:36;99680.00;;;13.18;100.00
62942;BME280;49042;47.318;19.874;2024-02-26T08:19:37;99682.91;;;13.59;100.00
62942;BME280;49042;47.318;19.874;2024-02-26T08:22:39;99673.78;;;13.03;100.00
62942;BME280;49042;47.318;19.874;2024-02-26T08:25:41;99675.47;;;12.98;100.00
62942;BME280;49042;47.318;19.874;2024-02-26T08:28:43;99672.34;;;13.42;100.00
62942;BME280;49042;47.318;19.874;2024-02-26T08:31:45;99667.28;;;13.68;100.00
62942;BME280;49042;47.318;19.874;2024-02-26T08:34:47;99663.97;;;14.07;100.00
62942;BME280;49042;47.318;19.874;2024-02-26T08:37:49;99669.41;;;14.73;100.00
62942;BME280;49042;47.318;19.874;2024-02-26T08:40:51;99672.00;;;14.72;100.00
62942;BME280;49042;47.318;19.874;2024-02-26T08:43:53;99670.22;;;14.55;100.00
62942;BME280;49042;47.318;19.874;2024-02-26T08:46:54;99665.94;;;15.04;100.00
62942;BME280;49042;47.318;19.874;2024-02-26T08:49:56;99660.69;;;15.22;100.00
62942;BME280;49042;47.318;19.874;2024-02-26T08:52:58;99667.69;;;15.04;100.00
62942;BME280;49042;47.318;19.874;2024-02-26T08:56:00;99657.81;;;16.18;100.00
62942;BME280;49042;47.318;19.874;2024-02-26T08:59:02;99670.22;;;15.79;100.00
62942;BME280;49042;47.318;19.874;2024-02-26T09:02:05;99677.22;;;15.82;100.00
62942;BME280;49042;47.318;19.874;2024-02-26T09:05:07;99679.88;;;15.55;100.00
62942;BME280;49042;47.318;19.874;2024-02-26T09:08:09;99671.09;;;15.73;100.00
62942;BME280;49042;47.318;19.874;2024-02-26T09:11:11;99674.53;;;15.87;100.00
62942;BME280;49042;47.318;19.874;2024-02-26T09:14:13;99674.44;;;16.24;100.00
62942;BME280;49042;47.318;19.874;2024-02-26T09:17:14;99667.66;;;15.41;100.00
62942;BME280;49042;47.318;19.874;2024-02-26T09:20:16;99669.31;;;15.85;100.00
62942;BME280;49042;47.318;19.874;2024-02-26T09:23:21;99667.66;;;17.21;100.00
62942;BME280;49042;47.318;19.874;2024-02-26T09:26:23;99669.22;;;18.86;100.00
62942;BME280;49042;47.318;19.874;2024-02-26T09:29:25;99663.38;;;19.20;93.60
62942;BME280;49042;47.318;19.874;2024-02-26T09:32:28;99664.91;;;18.80;97.36
62942;BME280;49042;47.318;19.874;2024-02-26T09:35:29;99677.50;;;19.18;93.01
62942;BME280;49042;47.318;19.874;2024-02-26T09:38:31;99675.59;;;18.72;94.05
62942;BME280;49042;47.318;19.874;2024-02-26T09:41:53;99673.87;;;18.68;98.03
62942;BME280;49042;47.318;19.874;2024-02-26T09:44:54;99668.13;;;19.98;88.87
62942;BME280;49042;47.318;19.874;2024-02-26T09:47:57;99664.72;;;21.12;70.18
62942;BME280;49042;47.318;19.874;2024-02-26T09:51:01;99661.78;;;20.86;68.43
62942;BME280;49042;47.318;19.874;2024-02-26T09:54:04;99668.09;;;20.42;72.93
62942;BME280;49042;47.318;19.874;2024-02-26T09:57:11;99672.59;;;22.72;58.04
62942;BME280;49042;47.318;19.874;2024-02-26T10:00:18;99674.31;;;22.46;57.60
62942;BME280;49042;47.318;19.874;2024-02-26T10:03:25;99667.59;;;22.63;57.81
62942;BME280;49042;47.318;19.874;2024-02-26T10:06:30;99671.03;;;22.38;58.00
62942;BME280;49042;47.318;19.874;2024-02-26T10:09:32;99670.56;;;21.27;60.25
62942;BME280;49042;47.318;19.874;2024-02-26T10:12:34;99680.84;;;20.25;74.63
62942;BME280;49042;47.318;19.874;2024-02-26T10:15:36;99683.06;;;19.54;80.02
62942;BME280;49042;47.318;19.874;2024-02-26T10:18:48;99682.88;;;19.13;88.26
62942;BME280;49042;47.318;19.874;2024-02-26T10:21:57;99680.63;;;18.88;94.81
62942;BME280;49042;47.318;19.874;2024-02-26T10:25:02;99685.72;;;18.40;99.28
62942;BME280;49042;47.318;19.874;2024-02-26T10:28:05;99674.97;;;18.54;98.51
62942;BME280;49042;47.318;19.874;2024-02-26T10:31:08;99682.41;;;18.22;100.00
62942;BME280;49042;47.318;19.874;2024-02-26T10:34:10;99684.03;;;18.34;100.00
62942;BME280;49042;47.318;19.874;2024-02-26T10:37:13;99687.59;;;18.33;100.00
62942;BME280;49042;47.318;19.874;2024-02-26T10:40:16;99676.44;;;18.06;100.00
62942;BME280;49042;47.318;19.874;2024-02-26T10:43:18;99670.09;;;18.26;100.00
62942;BME280;49042;47.318;19.874;2024-02-26T10:46:20;99676.09;;;18.36;98.28
62942;BME280;49042;47.318;19.874;2024-02-26T10:49:22;99671.47;;;19.09;95.33
62942;BME280;49042;47.318;19.874;2024-02-26T10:52:25;99670.75;;;19.53;86.79
62942;BME280;49042;47.318;19.874;2024-02-26T10:55:29;99664.78;;;19.42;87.21
62942;BME280;49042;47.318;19.874;2024-02-26T10:58:31;99665.56;;;19.93;79.44
62942;BME280;49042;47.318;19.874;2024-02-26T11:01:35;99664.41;;;19.62;79.40
62942;BME280;49042;47.318;19.874;2024-02-26T11:04:39;99663.16;;;20.25;74.83
62942;BME280;49042;47.318;19.874;2024-02-26T11:07:41;99658.41;;;22.44;60.07
62942;BME280;49042;47.318;19.874;2024-02-26T11:10:47;99659.63;;;25.93;45.38
62942;BME280;49042;47.318;19.874;2024-02-26T11:13:50;99647.34;;;25.88;42.35
62942;BME280;49042;47.318;19.874;2024-02-26T11:16:54;99642.09;;;24.13;48.00
62942;BME280;49042;47.318;19.874;2024-02-26T11:19:58;99650.63;;;25.74;42.87
62942;BME280;49042;47.318;19.874;2024-02-26T11:23:00;99638.59;;;28.98;36.89
62942;BME280;49042;47.318;19.874;2024-02-26T11:26:04;99640.88;;;30.66;32.71
62942;BME280;49042;47.318;19.874;2024-02-26T11:29:08;99640.13;;;31.57;31.21
62942;BME280;49042;47.318;19.874;2024-02-26T11:32:12;99644.56;;;31.71;29.75
62942;BME280;49042;47.318;19.874;2024-02-26T11:35:15;99640.97;;;32.84;27.81
62942;BME280;49042;47.318;19.874;2024-02-26T11:38:23;99644.03;;;30.86;30.62
62942;BME280;49042;47.318;19.874;2024-02-26T11:41:25;99640.81;;;30.81;30.72
62942;BME280;49042;47.318;19.874;2024-02-26T11:44:29;99641.84;;;30.22;30.57
62942;BME280;49042;47.318;19.874;2024-02-26T11:47:34;99637.63;;;32.31;28.72
62942;BME280;49042;47.318;19.874;2024-02-26T11:50:39;99638.94;;;31.09;29.95
62942;BME280;49042;47.318;19.874;2024-02-26T11:53:47;99633.22;;;32.30;27.40
62942;BME280;49042;47.318;19.874;2024-02-26T11:56:50;99618.34;;;31.87;28.86
62942;BME280;49042;47.318;19.874;2024-02-26T11:59:52;99636.88;;;33.15;27.13
62942;BME280;49042;47.318;19.874;2024-02-26T12:02:55;99631.03;;;31.98;28.75
62942;BME280;49042;47.318;19.874;2024-02-26T12:06:03;99627.16;;;33.00;27.77
62942;BME280;49042;47.318;19.874;2024-02-26T12:09:05;99619.97;;;33.47;26.89
62942;BME280;49042;47.318;19.874;2024-02-26T12:12:09;99630.25;;;34.89;24.51
62942;BME280;49042;47.318;19.874;2024-02-26T12:15:11;99626.53;;;33.08;25.87
62942;BME280;49042;47.318;19.874;2024-02-26T12:18:18;99635.84;;;35.30;24.52
62942;BME280;49042;47.318;19.874;2024-02-26T12:21:20;99628.22;;;33.34;26.02
62942;BME280;49042;47.318;19.874;2024-02-26T12:24:22;99624.19;;;31.80;27.62
62942;BME280;49042;47.318;19.874;2024-02-26T12:27:24;99616.53;;;29.97;30.15
62942;BME280;49042;47.318;19.874;2024-02-26T12:30:26;99627.31;;;31.08;29.12
62942;BME280;49042;47.318;19.874;2024-02-26T12:33:31;99620.00;;;31.37;29.19
62942;BME280;49042;47.318;19.874;2024-02-26T12:36:34;99610.66;;;30.20;29.67
62942;BME280;49042;47.318;19.874;2024-02-26T12:39:40;99607.66;;;28.29;32.92
62942;BME280;49042;47.318;19.874;2024-02-26T12:42:42;99614.44;;;28.98;32.40
62942;BME280;49042;47.318;19.874;2024-02-26T12:45:43;99615.72;;;26.18;35.88
62942;BME280;49042;47.318;19.874;2024-02-26T12:48:49;99610.59;;;25.94;36.94
62942;BME280;49042;47.318;19.874;2024-02-26T12:51:51;99609.84;;;25.30;38.44
62942;BME280;49042;47.318;19.874;2024-02-26T12:54:53;99607.72;;;23.82;41.03
62942;BME280;49042;47.318;19.874;2024-02-26T12:57:55;99603.09;;;23.88;42.64
62942;BME280;49042;47.318;19.874;2024-02-26T13:00:57;99614.09;;;22.18;49.09
62942;BME280;49042;47.318;19.874;2024-02-26T13:03:59;99618.53;;;22.17;50.04
62942;BME280;49042;47.318;19.874;2024-02-26T13:07:07;99619.81;;;20.69;59.54
62942;BME280;49042;47.318;19.874;2024-02-26T13:10:10;99622.59;;;21.00;58.28
62942;BME280;49042;47.318;19.874;2024-02-26T13:13:17;99618.78;;;20.75;63.95
62942;BME280;49042;47.318;19.874;2024-02-26T13:16:19;99620.59;;;20.73;68.05
62942;BME280;49042;47.318;19.874;2024-02-26T13:19:21;99623.34;;;21.40;60.54
62942;BME280;49042;47.318;19.874;2024-02-26T13:22:23;99628.25;;;21.21;63.79
62942;BME280;49042;47.318;19.874;2024-02-26T13:25:25;99626.31;;;21.27;60.42
62942;BME280;49042;47.318;19.874;2024-02-26T13:28:27;99625.84;;;21.77;59.53
62942;BME280;49042;47.318;19.874;2024-02-26T13:31:29;99627.59;;;23.48;52.07
62942;BME280;49042;47.318;19.874;2024-02-26T13:34:31;99623.22;;;27.55;39.45
62942;BME280;49042;47.318;19.874;2024-02-26T13:37:35;99627.63;;;28.55;37.39
62942;BME280;49042;47.318;19.874;2024-02-26T13:40:37;99613.47;;;27.70;35.98
62942;BME280;49042;47.318;19.874;2024-02-26T13:43:40;99619.44;;;25.75;40.21
62942;BME280;49042;47.318;19.874;2024-02-26T13:46:42;99617.19;;;23.67;45.01
62942;BME280;49042;47.318;19.874;2024-02-26T13:49:44;99622.00;;;23.56;45.89
62942;BME280;49042;47.318;19.874;2024-02-26T13:52:46;99615.78;;;23.81;46.56
62942;BME280;49042;47.318;19.874;2024-02-26T13:55:47;99625.13;;;25.88;41.16
62942;BME280;49042;47.318;19.874;2024-02-26T13:58:49;99620.50;;;25.92;40.91
62942;BME280;49042;47.318;19.874;2024-02-26T14:01:51;99623.66;;;27.64;36.84
62942;BME280;49042;47.318;19.874;2024-02-26T14:04:54;99624.50;;;28.63;36.09
62942;BME280;49042;47.318;19.874;2024-02-26T14:07:56;99627.84;;;28.83;33.91
62942;BME280;49042;47.318;19.874;2024-02-26T14:10:58;99621.84;;;28.47;33.84
62942;BME280;49042;47.318;19.874;2024-02-26T14:14:01;99627.72;;;27.55;36.07
62942;BME280;49042;47.318;19.874;2024-02-26T14:17:03;99631.09;;;28.25;35.18
62942;BME280;49042;47.318;19.874;2024-02-26T14:20:05;99627.63;;;27.56;35.49
62942;BME280;49042;47.318;19.874;2024-02-26T14:23:09;99633.41;;;26.01;38.58
62942;BME280;49042;47.318;19.874;2024-02-26T14:26:11;99627.69;;;25.09;40.15
62942;BME280;49042;47.318;19.874;2024-02-26T14:29:13;99633.06;;;26.09;38.73
62942;BME280;49042;47.318;19.874;2024-02-26T14:32:15;99638.09;;;26.35;37.28
62942;BME280;49042;47.318;19.874;2024-02-26T14:35:17;99634.50;;;26.36;37.78
62942;BME280;49042;47.318;19.874;2024-02-26T14:38:19;99634.19;;;26.23;38.17
62942;BME280;49042;47.318;19.874;2024-02-26T14:41:21;99639.88;;;25.35;39.48
62942;BME280;49042;47.318;19.874;2024-02-26T14:44:23;99629.31;;;25.73;39.41
62942;BME280;49042;47.318;19.874;2024-02-26T14:47:25;99636.44;;;25.53;38.52
62942;BME280;49042;47.318;19.874;2024-02-26T14:50:27;99634.34;;;23.05;43.78
62942;BME280;49042;47.318;19.874;2024-02-26T14:53:29;99626.81;;;21.08;49.72
62942;BME280;49042;47.318;19.874;2024-02-26T14:56:31;99625.50;;;21.25;51.88
62942;BME280;49042;47.318;19.874;2024-02-26T14:59:33;99613.41;;;20.78;53.40
62942;BME280;49042;47.318;19.874;2024-02-26T15:02:35;99624.72;;;20.48;58.39
62942;BME280;49042;47.318;19.874;2024-02-26T15:05:37;99619.34;;;19.67;65.73
62942;BME280;49042;47.318;19.874;2024-02-26T15:08:38;99623.53;;;19.33;74.22
62942;BME280;49042;47.318;19.874;2024-02-26T15:11:40;99618.91;;;18.93;81.59
62942;BME280;49042;47.318;19.874;2024-02-26T15:14:42;99613.56;;;18.97;82.01
62942;BME280;49042;47.318;19.874;2024-02-26T15:17:44;99620.63;;;18.96;85.58
62942;BME280;49042;47.318;19.874;2024-02-26T15:20:46;99620.78;;;19.39;87.01
62942;BME280;49042;47.318;19.874;2024-02-26T15:23:47;99617.06;;;19.48;86.94
62942;BME280;49042;47.318;19.874;2024-02-26T15:27:05;99626.19;;;19.31;90.48
62942;BME280;49042;47.318;19.874;2024-02-26T15:30:07;99619.34;;;18.65;96.95
62942;BME280;49042;47.318;19.874;2024-02-26T15:33:09;99625.06;;;18.35;100.00
62942;BME280;49042;47.318;19.874;2024-02-26T15:36:11;99636.22;;;17.86;100.00
62942;BME280;49042;47.318;19.874;2024-02-26T15:39:13;99630.25;;;17.72;100.00
62942;BME280;49042;47.318;19.874;2024-02-26T15:42:15;99633.31;;;17.32;100.00
62942;BME280;49042;47.318;19.874;2024-02-26T15:45:16;99633.38;;;17.28;100.00
62942;BME280;49042;47.318;19.874;2024-02-26T15:48:18;99642.19;;;17.22;100.00